createdAt,value
2022-07-31T00:00:25.503Z,100.00
2022-07-31T00:03:04.106Z,100.00
2022-07-31T00:05:31.768Z,100.00
2022-07-31T00:08:06.023Z,100.00
2022-07-31T00:10:33.700Z,100.00
2022-07-31T00:13:00.923Z,100.00
2022-07-31T00:15:28.170Z,100.00
2022-07-31T00:17:55.642Z,100.00
2022-07-31T00:20:22.834Z,100.00
2022-07-31T00:22:50.671Z,100.00
2022-07-31T00:25:18.985Z,100.00
2022-07-31T00:27:46.417Z,100.00
2022-07-31T00:30:14.694Z,100.00
2022-07-31T00:32:42.173Z,100.00
2022-07-31T00:35:12.351Z,100.00
2022-07-31T00:37:40.557Z,100.00
2022-07-31T00:40:11.750Z,100.00
2022-07-31T00:42:39.925Z,100.00
2022-07-31T00:45:07.945Z,100.00
2022-07-31T00:47:35.862Z,100.00
2022-07-31T00:50:04.129Z,100.00
2022-07-31T00:52:31.432Z,100.00
2022-07-31T00:54:59.119Z,100.00
2022-07-31T00:57:26.330Z,100.00
2022-07-31T00:59:53.568Z,100.00
2022-07-31T01:02:21.110Z,100.00
2022-07-31T01:04:48.308Z,100.00
2022-07-31T01:07:15.811Z,100.00
2022-07-31T01:09:44.936Z,100.00
2022-07-31T01:12:26.175Z,100.00
2022-07-31T01:14:56.585Z,100.00
2022-07-31T01:17:27.578Z,100.00
2022-07-31T01:19:55.237Z,100.00
2022-07-31T01:22:53.902Z,100.00
2022-07-31T01:25:58.728Z,100.00
2022-07-31T01:29:29.935Z,100.00
2022-07-31T01:32:10.879Z,100.00
2022-07-31T01:34:41.978Z,100.00
2022-07-31T01:37:18.156Z,100.00
2022-07-31T01:39:52.774Z,100.00
2022-07-31T01:42:24.757Z,100.00
2022-07-31T01:44:57.071Z,100.00
2022-07-31T01:47:27.809Z,100.00
2022-07-31T01:49:58.581Z,100.00
2022-07-31T01:52:28.483Z,100.00
2022-07-31T01:54:58.682Z,100.00
2022-07-31T01:57:27.498Z,100.00
2022-07-31T02:00:00.954Z,100.00
2022-07-31T02:02:43.909Z,100.00
2022-07-31T02:05:12.934Z,100.00
2022-07-31T02:07:45.222Z,100.00
2022-07-31T02:10:15.666Z,100.00
2022-07-31T02:12:45.563Z,100.00
2022-07-31T02:15:14.919Z,100.00
2022-07-31T02:17:46.186Z,100.00
2022-07-31T02:20:23.802Z,100.00
2022-07-31T02:22:54.638Z,100.00
2022-07-31T02:25:22.378Z,100.00
2022-07-31T02:27:55.558Z,100.00
2022-07-31T02:30:39.261Z,100.00
2022-07-31T02:33:28.756Z,100.00
2022-07-31T02:35:57.654Z,100.00
2022-07-31T02:38:27.580Z,100.00
2022-07-31T02:40:58.862Z,100.00
2022-07-31T02:43:28.635Z,100.00
2022-07-31T02:45:58.788Z,100.00
2022-07-31T02:48:27.234Z,100.00
2022-07-31T02:50:57.736Z,100.00
2022-07-31T02:53:26.108Z,100.00
2022-07-31T02:55:59.054Z,100.00
2022-07-31T02:58:26.303Z,100.00
2022-07-31T03:01:06.318Z,100.00
2022-07-31T03:03:35.242Z,100.00
2022-07-31T03:06:02.543Z,100.00
2022-07-31T03:08:30.057Z,100.00
2022-07-31T03:11:03.537Z,100.00
2022-07-31T03:13:33.578Z,100.00
2022-07-31T03:16:02.428Z,100.00
2022-07-31T03:18:31.436Z,100.00
2022-07-31T03:20:58.753Z,100.00
2022-07-31T03:23:28.263Z,100.00
2022-07-31T03:26:05.882Z,100.00
2022-07-31T03:28:36.106Z,100.00
2022-07-31T03:31:03.661Z,100.00
2022-07-31T03:33:32.076Z,100.00
2022-07-31T03:35:59.604Z,100.00
2022-07-31T03:38:41.547Z,100.00
2022-07-31T03:41:32.681Z,100.00
2022-07-31T03:44:00.004Z,100.00
2022-07-31T03:46:28.227Z,100.00
2022-07-31T03:48:55.930Z,100.00
2022-07-31T03:51:26.215Z,100.00
2022-07-31T03:53:54.085Z,100.00
2022-07-31T03:56:45.443Z,100.00
2022-07-31T03:59:16.030Z,100.00
2022-07-31T04:01:57.258Z,100.00
2022-07-31T04:04:48.981Z,100.00
2022-07-31T04:07:17.222Z,100.00
2022-07-31T04:09:45.385Z,100.00
2022-07-31T04:12:14.419Z,100.00
2022-07-31T04:14:41.987Z,100.00
2022-07-31T04:17:09.419Z,100.00
2022-07-31T04:19:37.012Z,100.00
2022-07-31T04:22:04.841Z,100.00
2022-07-31T04:24:33.452Z,100.00
2022-07-31T04:27:48.569Z,100.00
2022-07-31T04:30:17.176Z,100.00
2022-07-31T04:32:45.326Z,100.00
2022-07-31T04:35:16.078Z,100.00
2022-07-31T04:37:48.459Z,100.00
2022-07-31T04:40:17.279Z,100.00
2022-07-31T04:42:44.754Z,100.00
2022-07-31T04:45:12.074Z,100.00
2022-07-31T04:47:39.607Z,100.00
2022-07-31T04:50:08.104Z,100.00
2022-07-31T04:52:35.433Z,100.00
2022-07-31T04:55:09.438Z,100.00
2022-07-31T04:57:36.820Z,100.00
2022-07-31T05:00:09.617Z,100.00
2022-07-31T05:02:37.476Z,100.00
2022-07-31T05:05:05.353Z,100.00
2022-07-31T05:07:38.196Z,100.00
2022-07-31T05:10:33.574Z,100.00
2022-07-31T05:13:01.156Z,100.00
2022-07-31T05:15:28.399Z,100.00
2022-07-31T05:17:56.982Z,98.79
2022-07-31T05:20:43.006Z,98.36
2022-07-31T05:23:44.140Z,98.42
2022-07-31T05:26:17.412Z,98.51
2022-07-31T05:28:46.759Z,96.47
2022-07-31T05:31:14.235Z,96.55
2022-07-31T05:33:41.794Z,96.54
2022-07-31T05:36:09.355Z,95.79
2022-07-31T05:38:36.704Z,95.35
2022-07-31T05:41:33.411Z,94.79
2022-07-31T05:44:11.134Z,93.21
2022-07-31T05:46:44.765Z,93.03
2022-07-31T05:49:12.057Z,91.60
2022-07-31T05:51:43.368Z,91.84
2022-07-31T05:54:10.934Z,92.63
2022-07-31T05:56:56.608Z,90.72
2022-07-31T05:59:32.956Z,89.79
2022-07-31T06:02:00.325Z,89.02
2022-07-31T06:04:29.421Z,87.57
2022-07-31T06:06:56.877Z,88.52
2022-07-31T06:09:24.904Z,86.18
2022-07-31T06:11:53.727Z,85.91
2022-07-31T06:14:21.198Z,85.35
2022-07-31T06:17:05.804Z,84.63
2022-07-31T06:19:35.124Z,81.76
2022-07-31T06:22:02.727Z,81.24
2022-07-31T06:24:32.322Z,81.59
2022-07-31T06:27:02.361Z,81.71
2022-07-31T06:29:41.024Z,81.42
2022-07-31T06:32:09.914Z,80.93
2022-07-31T06:34:37.596Z,79.31
2022-07-31T06:37:05.426Z,80.06
2022-07-31T06:39:54.288Z,79.15
2022-07-31T06:42:40.802Z,78.14
2022-07-31T06:45:08.920Z,78.13
2022-07-31T06:48:02.470Z,77.83
2022-07-31T06:50:35.947Z,77.55
2022-07-31T06:53:32.269Z,76.25
2022-07-31T06:55:59.856Z,76.26
2022-07-31T06:58:27.108Z,75.21
2022-07-31T07:00:54.341Z,73.17
2022-07-31T07:03:21.740Z,73.03
2022-07-31T07:05:49.677Z,73.38
2022-07-31T07:08:16.920Z,73.83
2022-07-31T07:10:46.402Z,73.26
2022-07-31T07:13:19.378Z,73.37
2022-07-31T07:15:46.611Z,74.63
2022-07-31T07:18:14.588Z,73.12
2022-07-31T07:20:49.851Z,74.25
2022-07-31T07:23:17.506Z,74.21
2022-07-31T07:25:52.771Z,73.66
2022-07-31T07:28:30.788Z,73.32
2022-07-31T07:31:00.614Z,72.95
2022-07-31T07:33:39.552Z,73.80
2022-07-31T07:36:07.816Z,73.77
2022-07-31T07:38:55.876Z,73.60
2022-07-31T07:41:27.117Z,73.41
2022-07-31T07:43:54.747Z,72.66
2022-07-31T07:46:25.778Z,71.53
2022-07-31T07:48:57.503Z,72.92
2022-07-31T07:51:58.895Z,71.50
2022-07-31T07:54:40.631Z,72.36
2022-07-31T07:57:26.567Z,72.29
2022-07-31T08:00:08.974Z,71.55
2022-07-31T08:03:02.878Z,72.29
2022-07-31T08:05:41.097Z,72.02
2022-07-31T08:08:09.547Z,71.66
2022-07-31T08:10:43.373Z,71.13
2022-07-31T08:13:15.769Z,70.49
2022-07-31T08:16:12.528Z,70.33
2022-07-31T08:18:45.579Z,71.51
2022-07-31T08:21:13.279Z,70.31
2022-07-31T08:23:40.881Z,71.09
2022-07-31T08:26:08.925Z,70.65
2022-07-31T08:28:36.505Z,69.74
2022-07-31T08:31:04.128Z,69.01
2022-07-31T08:33:34.393Z,69.58
2022-07-31T08:36:02.031Z,70.43
2022-07-31T08:38:29.932Z,69.20
2022-07-31T08:41:38.897Z,69.15
2022-07-31T08:44:10.537Z,67.89
2022-07-31T08:46:39.788Z,64.76
2022-07-31T08:49:09.972Z,66.49
2022-07-31T08:51:51.252Z,67.21
2022-07-31T08:54:54.865Z,67.54
2022-07-31T08:57:26.919Z,65.91
2022-07-31T08:59:55.492Z,65.89
2022-07-31T09:02:22.869Z,64.76
2022-07-31T09:05:22.800Z,64.94
2022-07-31T09:07:50.106Z,64.89
2022-07-31T09:10:22.984Z,64.62
2022-07-31T09:12:52.093Z,64.86
2022-07-31T09:15:21.216Z,64.72
2022-07-31T09:17:53.890Z,62.55
2022-07-31T09:20:27.867Z,64.95
2022-07-31T09:23:07.421Z,63.58
2022-07-31T09:25:37.043Z,62.36
2022-07-31T09:28:06.863Z,63.20
2022-07-31T09:30:35.221Z,66.03
2022-07-31T09:33:55.105Z,66.99
2022-07-31T09:36:34.271Z,64.86
2022-07-31T09:39:14.842Z,61.66
2022-07-31T09:42:16.426Z,63.85
2022-07-31T09:44:55.751Z,66.76
2022-07-31T09:47:32.201Z,66.93
2022-07-31T09:50:04.440Z,65.17
2022-07-31T09:52:33.544Z,64.60
2022-07-31T09:55:15.005Z,62.32
2022-07-31T09:57:54.538Z,64.06
2022-07-31T10:00:23.093Z,64.89
2022-07-31T10:02:53.891Z,65.26
2022-07-31T10:05:26.560Z,65.31
2022-07-31T10:08:00.666Z,63.66
2022-07-31T10:10:45.329Z,63.19
2022-07-31T10:13:56.603Z,59.14
2022-07-31T10:16:27.538Z,62.08
2022-07-31T10:19:36.914Z,65.39
2022-07-31T10:22:27.570Z,65.85
2022-07-31T10:25:00.604Z,66.21
2022-07-31T10:27:29.909Z,64.91
2022-07-31T10:30:03.515Z,63.93
2022-07-31T10:32:32.208Z,64.92
2022-07-31T10:35:19.331Z,67.11
2022-07-31T10:38:19.164Z,65.85
2022-07-31T10:40:56.727Z,66.56
2022-07-31T10:43:29.373Z,66.93
2022-07-31T10:46:10.109Z,65.91
2022-07-31T10:49:08.518Z,66.51
2022-07-31T10:52:02.337Z,65.64
2022-07-31T10:54:49.112Z,66.95
2022-07-31T10:57:55.305Z,65.73
2022-07-31T11:00:45.622Z,63.35
2022-07-31T11:03:46.393Z,61.59
2022-07-31T11:06:21.747Z,61.49
2022-07-31T11:09:09.475Z,62.15
2022-07-31T11:11:45.055Z,64.61
2022-07-31T11:14:39.719Z,66.45
2022-07-31T11:18:23.781Z,65.51
2022-07-31T11:20:32.896Z,62.93
2022-07-31T11:23:05.341Z,57.33
2022-07-31T11:25:35.144Z,58.43
2022-07-31T11:28:16.285Z,59.50
2022-07-31T11:31:00.076Z,57.58
2022-07-31T11:33:42.144Z,59.92
2022-07-31T11:36:16.722Z,58.73
2022-07-31T11:38:47.000Z,58.92
2022-07-31T11:41:15.399Z,58.14
2022-07-31T11:43:47.476Z,58.71
2022-07-31T11:46:27.891Z,60.06
2022-07-31T11:48:57.213Z,60.25
2022-07-31T11:51:25.919Z,63.21
2022-07-31T11:53:58.064Z,63.00
2022-07-31T11:56:27.127Z,60.99
2022-07-31T11:58:57.045Z,60.22
2022-07-31T12:01:27.702Z,60.65
2022-07-31T12:03:57.013Z,61.03
2022-07-31T12:06:24.304Z,60.39
2022-07-31T12:08:52.854Z,61.81
2022-07-31T12:11:21.410Z,62.38
2022-07-31T12:13:49.584Z,63.95
2022-07-31T12:16:18.908Z,64.24
2022-07-31T12:18:59.350Z,63.88
2022-07-31T12:21:36.019Z,62.67
2022-07-31T12:24:12.059Z,64.60
2022-07-31T12:26:43.063Z,63.88
2022-07-31T12:29:12.880Z,63.34
2022-07-31T12:31:49.236Z,64.05
2022-07-31T12:34:31.967Z,65.56
2022-07-31T12:36:59.217Z,66.31
2022-07-31T12:39:54.177Z,66.75
2022-07-31T12:42:35.155Z,66.21
2022-07-31T12:45:17.984Z,65.32
2022-07-31T12:47:52.123Z,65.74
2022-07-31T12:50:21.559Z,67.12
2022-07-31T12:52:48.890Z,67.07
2022-07-31T12:55:17.305Z,65.84
2022-07-31T12:57:50.971Z,65.33
2022-07-31T13:00:24.052Z,63.97
2022-07-31T13:02:56.656Z,63.94
2022-07-31T13:05:24.995Z,62.67
2022-07-31T13:07:52.577Z,63.56
2022-07-31T13:10:24.805Z,63.39
2022-07-31T13:12:52.985Z,63.85
2022-07-31T13:15:29.690Z,63.05
2022-07-31T13:17:58.717Z,63.05
2022-07-31T13:20:26.334Z,64.37
2022-07-31T13:22:53.823Z,66.93
2022-07-31T13:25:21.070Z,66.59
2022-07-31T13:27:48.470Z,64.65
2022-07-31T13:30:16.354Z,65.32
2022-07-31T13:32:43.753Z,67.82
2022-07-31T13:35:24.211Z,65.79
2022-07-31T13:37:55.385Z,65.80
2022-07-31T13:40:42.907Z,65.47
2022-07-31T13:43:10.333Z,64.10
2022-07-31T13:45:37.984Z,64.66
2022-07-31T13:48:09.200Z,63.92
2022-07-31T13:50:39.710Z,64.72
2022-07-31T13:53:07.968Z,64.33
2022-07-31T13:55:36.563Z,64.51
2022-07-31T13:58:04.040Z,65.40
2022-07-31T14:00:32.236Z,66.24
2022-07-31T14:02:59.565Z,65.82
2022-07-31T14:05:27.508Z,64.38
2022-07-31T14:07:56.406Z,64.09
2022-07-31T14:10:48.449Z,63.65
2022-07-31T14:13:19.164Z,64.84
2022-07-31T14:15:47.280Z,66.49
2022-07-31T14:18:14.698Z,68.36
2022-07-31T14:20:42.727Z,68.09
2022-07-31T14:23:10.150Z,68.34
2022-07-31T14:25:41.339Z,67.23
2022-07-31T14:28:09.984Z,67.87
2022-07-31T14:30:37.580Z,65.48
2022-07-31T14:33:05.168Z,67.84
2022-07-31T14:35:33.770Z,68.69
2022-07-31T14:38:04.193Z,67.62
2022-07-31T14:40:31.763Z,61.68
2022-07-31T14:42:59.480Z,62.20
2022-07-31T14:45:26.909Z,61.38
2022-07-31T14:47:55.305Z,61.67
2022-07-31T14:50:23.497Z,62.19
2022-07-31T14:52:50.789Z,63.95
2022-07-31T14:55:19.453Z,63.28
2022-07-31T14:57:46.961Z,63.59
2022-07-31T15:00:15.083Z,64.23
2022-07-31T15:02:43.780Z,66.17
2022-07-31T15:06:51.034Z,67.28
2022-07-31T15:08:00.376Z,66.03
2022-07-31T15:10:30.290Z,66.12
2022-07-31T15:12:58.534Z,62.69
2022-07-31T15:15:25.730Z,62.68
2022-07-31T15:17:56.517Z,64.29
2022-07-31T15:20:28.882Z,64.59
2022-07-31T15:23:01.683Z,65.80
2022-07-31T15:25:29.107Z,64.53
2022-07-31T15:27:56.389Z,62.76
2022-07-31T15:30:23.866Z,64.11
2022-07-31T15:32:52.468Z,64.37
2022-07-31T15:35:19.882Z,64.90
2022-07-31T15:37:47.381Z,65.02
2022-07-31T15:40:15.821Z,66.11
2022-07-31T15:42:45.088Z,65.52
2022-07-31T15:45:15.625Z,65.78
2022-07-31T15:47:43.402Z,65.76
2022-07-31T15:50:12.277Z,66.02
2022-07-31T15:52:39.970Z,66.45
2022-07-31T15:55:07.878Z,66.85
2022-07-31T15:57:35.443Z,67.75
2022-07-31T16:00:05.086Z,68.52
2022-07-31T16:02:38.589Z,67.76
2022-07-31T16:05:11.815Z,67.91
2022-07-31T16:08:31.038Z,68.67
2022-07-31T16:10:37.571Z,70.01
2022-07-31T16:13:05.067Z,71.29
2022-07-31T16:15:32.421Z,70.79
2022-07-31T16:17:59.862Z,71.24
2022-07-31T16:20:27.449Z,70.24
2022-07-31T16:22:58.120Z,69.92
2022-07-31T16:25:27.214Z,69.63
2022-07-31T16:27:55.351Z,69.27
2022-07-31T16:30:23.269Z,69.70
2022-07-31T16:32:50.835Z,70.65
2022-07-31T16:35:18.436Z,72.01
2022-07-31T16:37:50.927Z,72.36
2022-07-31T16:40:30.628Z,73.33
2022-07-31T16:43:46.760Z,75.24
2022-07-31T16:45:50.672Z,75.33
2022-07-31T16:48:18.423Z,75.45
2022-07-31T16:50:48.203Z,75.56
2022-07-31T16:54:11.398Z,75.95
2022-07-31T16:56:09.018Z,76.95
2022-07-31T16:58:36.631Z,76.37
2022-07-31T17:01:04.238Z,76.30
2022-07-31T17:04:00.894Z,76.52
2022-07-31T17:06:19.262Z,74.91
2022-07-31T17:09:17.209Z,74.29
2022-07-31T17:11:49.294Z,74.98
2022-07-31T17:14:18.319Z,74.80
2022-07-31T17:16:48.288Z,75.57
2022-07-31T17:19:41.171Z,76.19
2022-07-31T17:22:17.946Z,75.65
2022-07-31T17:24:51.069Z,76.54
2022-07-31T17:27:20.097Z,78.38
2022-07-31T17:29:47.734Z,77.79
2022-07-31T17:32:14.980Z,77.75
2022-07-31T17:34:45.245Z,77.53
2022-07-31T17:37:13.029Z,79.31
2022-07-31T17:39:40.711Z,78.97
2022-07-31T17:42:09.345Z,78.42
2022-07-31T17:44:38.003Z,79.97
2022-07-31T17:47:08.387Z,80.23
2022-07-31T17:49:36.127Z,80.34
2022-07-31T17:52:04.438Z,81.45
2022-07-31T17:54:32.675Z,82.16
2022-07-31T17:57:00.400Z,79.89
2022-07-31T17:59:28.260Z,79.00
2022-07-31T18:02:05.805Z,79.84
2022-07-31T18:04:35.553Z,80.36
2022-07-31T18:07:04.486Z,80.77
2022-07-31T18:09:32.141Z,80.83
2022-07-31T18:12:00.127Z,82.39
2022-07-31T18:14:27.455Z,81.78
2022-07-31T18:16:54.969Z,83.14
2022-07-31T18:19:22.796Z,83.05
2022-07-31T18:21:51.408Z,83.93
2022-07-31T18:24:19.961Z,83.39
2022-07-31T18:26:47.619Z,83.88
2022-07-31T18:29:17.043Z,81.56
2022-07-31T18:31:44.941Z,82.91
2022-07-31T18:34:13.563Z,83.86
2022-07-31T18:36:41.018Z,84.74
2022-07-31T18:39:08.656Z,84.77
2022-07-31T18:41:37.358Z,86.42
2022-07-31T18:44:05.111Z,87.82
2022-07-31T18:46:32.443Z,88.49
2022-07-31T18:49:00.539Z,88.39
2022-07-31T18:51:29.297Z,88.28
2022-07-31T18:53:56.942Z,87.57
2022-07-31T18:56:25.128Z,89.12
2022-07-31T18:58:53.211Z,89.40
2022-07-31T19:01:20.948Z,89.87
2022-07-31T19:03:48.570Z,91.86
2022-07-31T19:06:16.697Z,93.30
2022-07-31T19:08:44.333Z,94.74
2022-07-31T19:11:12.537Z,96.21
2022-07-31T19:13:39.970Z,97.49
2022-07-31T19:16:07.272Z,98.19
2022-07-31T19:18:34.756Z,98.70
2022-07-31T19:21:23.541Z,99.60
2022-07-31T19:23:50.057Z,100.00
2022-07-31T19:26:17.290Z,100.00
2022-07-31T19:28:44.816Z,100.00
2022-07-31T19:31:13.422Z,100.00
2022-07-31T19:33:41.037Z,100.00
2022-07-31T19:36:10.735Z,100.00
2022-07-31T19:38:39.753Z,100.00
2022-07-31T19:41:06.965Z,100.00
2022-07-31T19:43:34.217Z,100.00
2022-07-31T19:46:11.618Z,100.00
2022-07-31T19:48:45.323Z,100.00
2022-07-31T19:51:14.303Z,100.00
2022-07-31T19:53:42.284Z,100.00
2022-07-31T19:56:10.586Z,100.00
2022-07-31T19:58:41.241Z,100.00
2022-07-31T20:01:10.079Z,100.00
2022-07-31T20:03:37.705Z,100.00
2022-07-31T20:06:05.518Z,100.00
2022-07-31T20:08:33.935Z,100.00
2022-07-31T20:11:04.151Z,100.00
2022-07-31T20:13:33.028Z,100.00
2022-07-31T20:16:01.324Z,100.00
2022-07-31T20:18:29.439Z,100.00
2022-07-31T20:21:00.451Z,100.00
2022-07-31T20:23:28.147Z,100.00
2022-07-31T20:25:55.613Z,100.00
2022-07-31T20:28:23.353Z,100.00
2022-07-31T20:30:50.612Z,100.00
2022-07-31T20:33:17.941Z,100.00
2022-07-31T20:35:49.466Z,100.00
2022-07-31T20:38:22.161Z,100.00
2022-07-31T20:40:53.897Z,100.00
2022-07-31T20:43:23.733Z,100.00
2022-07-31T20:45:52.437Z,100.00
2022-07-31T20:48:22.562Z,100.00
2022-07-31T20:50:50.678Z,100.00
2022-07-31T20:53:19.608Z,100.00
2022-07-31T20:55:49.431Z,100.00
2022-07-31T20:58:18.552Z,100.00
2022-07-31T21:00:47.522Z,100.00
2022-07-31T21:03:16.262Z,100.00
2022-07-31T21:05:44.298Z,100.00
2022-07-31T21:08:12.305Z,100.00
2022-07-31T21:10:39.712Z,100.00
2022-07-31T21:13:07.123Z,100.00
2022-07-31T21:15:42.476Z,100.00
2022-07-31T21:18:12.461Z,100.00
2022-07-31T21:20:50.212Z,100.00
2022-07-31T21:23:21.870Z,100.00
2022-07-31T21:25:50.703Z,100.00
2022-07-31T21:28:18.401Z,100.00
2022-07-31T21:30:45.849Z,100.00
2022-07-31T21:33:13.639Z,100.00
2022-07-31T21:35:41.061Z,100.00
2022-07-31T21:38:12.575Z,100.00
2022-07-31T21:40:40.711Z,100.00
2022-07-31T21:43:09.166Z,100.00
2022-07-31T21:45:51.153Z,100.00
2022-07-31T21:48:25.966Z,100.00
2022-07-31T21:50:54.860Z,100.00
2022-07-31T21:53:22.846Z,100.00
2022-07-31T21:55:50.924Z,100.00
2022-07-31T21:58:18.635Z,100.00
2022-07-31T22:00:46.276Z,100.00
2022-07-31T22:03:13.837Z,100.00
2022-07-31T22:05:59.560Z,100.00
2022-07-31T22:08:27.233Z,100.00
2022-07-31T22:10:54.522Z,100.00
2022-07-31T22:13:21.858Z,100.00
2022-07-31T22:15:54.304Z,100.00
2022-07-31T22:18:31.071Z,100.00
2022-07-31T22:21:00.523Z,100.00
2022-07-31T22:23:28.561Z,100.00
2022-07-31T22:25:56.455Z,100.00
2022-07-31T22:28:25.506Z,100.00
2022-07-31T22:30:53.884Z,100.00
2022-07-31T22:33:22.046Z,100.00
2022-07-31T22:35:58.164Z,100.00
2022-07-31T22:38:29.690Z,100.00
2022-07-31T22:40:59.013Z,100.00
2022-07-31T22:44:13.523Z,100.00
2022-07-31T22:46:15.456Z,100.00
2022-07-31T22:48:45.563Z,100.00
2022-07-31T22:51:14.638Z,100.00
2022-07-31T22:53:43.688Z,100.00
2022-07-31T22:56:11.072Z,100.00
2022-07-31T22:58:38.398Z,100.00
2022-07-31T23:01:05.837Z,100.00
2022-07-31T23:03:33.117Z,100.00
2022-07-31T23:06:03.558Z,100.00
2022-07-31T23:08:54.601Z,100.00
2022-07-31T23:11:23.577Z,100.00
2022-07-31T23:13:51.743Z,100.00
2022-07-31T23:16:20.481Z,100.00
2022-07-31T23:18:48.967Z,100.00
2022-07-31T23:21:18.768Z,100.00
2022-07-31T23:23:49.188Z,100.00
2022-07-31T23:26:21.699Z,100.00
2022-07-31T23:28:49.080Z,100.00
2022-07-31T23:31:17.559Z,100.00
2022-07-31T23:33:45.944Z,100.00
2022-07-31T23:36:14.273Z,100.00
2022-07-31T23:38:42.474Z,100.00
2022-07-31T23:41:10.687Z,100.00
2022-07-31T23:43:38.024Z,100.00
2022-07-31T23:46:05.682Z,100.00
2022-07-31T23:48:36.210Z,100.00
2022-07-31T23:51:06.615Z,100.00
2022-07-31T23:53:34.082Z,100.00
2022-07-31T23:56:01.269Z,100.00
2022-07-31T23:58:28.447Z,100.00
